createdAt,value
2018-08-19T00:04:02.493Z,9.37
2018-08-19T00:09:13.243Z,10.00
2018-08-19T00:14:28.474Z,11.00
2018-08-19T00:19:32.953Z,15.90
2018-08-19T00:24:35.993Z,17.70
2018-08-19T00:29:39.021Z,15.60
2018-08-19T00:34:42.124Z,11.13
2018-08-19T00:39:45.137Z,11.80
2018-08-19T00:44:48.184Z,9.47
2018-08-19T00:49:55.462Z,11.30
2018-08-19T00:54:58.536Z,11.30
2018-08-19T01:00:01.544Z,11.70
2018-08-19T01:05:04.672Z,11.00
2018-08-19T01:10:07.688Z,10.80
2018-08-19T01:15:11.992Z,8.97
2018-08-19T01:20:20.012Z,13.00
2018-08-19T01:25:23.022Z,15.13
2018-08-19T01:30:27.049Z,14.53
2018-08-19T01:35:36.384Z,11.40
2018-08-19T01:40:39.457Z,12.67
2018-08-19T01:45:42.494Z,10.53
2018-08-19T01:50:45.512Z,11.50
2018-08-19T01:55:48.527Z,13.17
2018-08-19T02:00:51.616Z,10.63
2018-08-19T02:05:54.836Z,13.60
2018-08-19T02:10:57.852Z,12.73
2018-08-19T02:16:04.840Z,11.60
2018-08-19T02:21:07.864Z,11.93
2018-08-19T02:26:10.920Z,12.80
2018-08-19T02:31:13.947Z,10.07
2018-08-19T02:36:17.023Z,11.67
2018-08-19T02:41:20.036Z,10.63
2018-08-19T02:46:23.164Z,9.30
2018-08-19T02:51:26.240Z,8.87
2018-08-19T02:56:29.264Z,7.60
2018-08-19T03:01:32.284Z,10.63
2018-08-19T03:06:36.396Z,11.03
2018-08-19T03:11:40.011Z,8.13
2018-08-19T03:16:43.032Z,11.43
2018-08-19T03:21:46.045Z,8.13
2018-08-19T03:26:49.100Z,12.50
2018-08-19T03:31:56.387Z,9.50
2018-08-19T03:36:59.512Z,6.57
2018-08-19T03:42:02.540Z,9.23
2018-08-19T03:47:09.804Z,7.13
2018-08-19T03:52:13.280Z,7.77
2018-08-19T03:57:19.742Z,8.17
2018-08-19T04:02:22.757Z,13.00
2018-08-19T04:07:25.774Z,11.30
2018-08-19T04:12:28.821Z,6.83
2018-08-19T04:17:31.852Z,8.23
2018-08-19T04:22:34.854Z,6.50
2018-08-19T04:27:37.877Z,8.50
2018-08-19T04:32:40.893Z,6.63
2018-08-19T04:37:43.936Z,6.47
2018-08-19T04:42:46.964Z,5.20
2018-08-19T04:47:49.980Z,6.63
2018-08-19T04:52:53.040Z,4.27
2018-08-19T04:57:56.147Z,7.30
2018-08-19T05:02:59.217Z,4.40
2018-08-19T05:08:02.322Z,4.50
2018-08-19T05:13:05.769Z,5.13
2018-08-19T05:18:09.192Z,8.93
2018-08-19T05:23:12.209Z,4.40
2018-08-19T05:28:16.650Z,4.87
2018-08-19T05:33:19.677Z,4.40
2018-08-19T05:38:22.700Z,13.40
2018-08-19T05:43:25.704Z,5.77
2018-08-19T05:48:28.840Z,6.20
2018-08-19T05:53:31.940Z,6.23
2018-08-19T05:58:35.053Z,4.47
2018-08-19T06:03:38.135Z,4.53
2018-08-19T06:08:41.152Z,4.10
2018-08-19T06:13:44.156Z,13.33
2018-08-19T06:18:47.174Z,3.80
2018-08-19T06:23:50.262Z,4.20
2018-08-19T06:28:53.888Z,4.97
2018-08-19T06:33:56.981Z,4.23
2018-08-19T06:38:59.992Z,7.93
2018-08-19T06:44:03.040Z,5.17
2018-08-19T06:49:12.348Z,7.50
2018-08-19T06:54:15.381Z,8.83
2018-08-19T06:59:18.445Z,8.90
2018-08-19T07:04:21.468Z,4.43
2018-08-19T07:09:24.481Z,3.37
2018-08-19T07:14:28.585Z,3.43
2018-08-19T07:19:31.685Z,2.77
2018-08-19T07:24:36.019Z,3.90
2018-08-19T07:29:39.098Z,3.67
2018-08-19T07:34:42.145Z,2.40
2018-08-19T07:39:50.708Z,4.83
2018-08-19T07:44:53.735Z,2.63
2018-08-19T07:49:56.753Z,6.37
2018-08-19T07:54:59.875Z,6.63
2018-08-19T08:00:02.884Z,4.83
2018-08-19T08:05:07.116Z,4.70
2018-08-19T08:10:10.141Z,4.17
2018-08-19T08:15:13.268Z,7.20
2018-08-19T08:20:16.292Z,4.87
2018-08-19T08:25:19.324Z,3.30
2018-08-19T08:30:22.347Z,1.57
2018-08-19T08:35:25.404Z,3.80
2018-08-19T08:40:28.429Z,2.93
2018-08-19T08:45:36.443Z,3.00
2018-08-19T08:50:40.420Z,3.87
2018-08-19T08:55:43.496Z,2.43
2018-08-19T09:00:47.056Z,2.50
2018-08-19T09:05:50.085Z,7.10
2018-08-19T09:10:53.981Z,6.63
2018-08-19T09:15:57.137Z,4.93
2018-08-19T09:21:00.168Z,4.07
2018-08-19T09:26:03.192Z,4.07
2018-08-19T09:31:06.260Z,9.03
2018-08-19T09:36:09.358Z,6.50
2018-08-19T09:41:12.919Z,3.27
2018-08-19T09:46:16.041Z,5.17
2018-08-19T09:51:19.372Z,4.30
2018-08-19T09:56:23.576Z,8.87
2018-08-19T10:01:32.081Z,3.43
2018-08-19T10:06:35.096Z,6.00
2018-08-19T10:11:38.455Z,6.43
2018-08-19T10:16:44.120Z,4.10
2018-08-19T10:21:47.140Z,2.73
2018-08-19T10:26:50.172Z,2.50
2018-08-19T10:31:54.817Z,7.50
2018-08-19T10:36:58.480Z,5.17
2018-08-19T10:42:17.868Z,6.23
2018-08-19T10:47:21.487Z,5.00
2018-08-19T10:52:26.642Z,2.63
2018-08-19T10:57:29.659Z,2.63
2018-08-19T11:02:32.743Z,3.10
2018-08-19T11:07:35.837Z,7.80
2018-08-19T11:12:38.968Z,2.43
2018-08-19T11:17:41.992Z,2.13
2018-08-19T11:22:45.066Z,2.70
2018-08-19T11:27:48.110Z,2.70
2018-08-19T11:32:51.612Z,6.47
2018-08-19T11:37:55.680Z,9.20
2018-08-19T11:42:58.733Z,1.73
2018-08-19T11:48:01.759Z,4.00
2018-08-19T11:53:04.794Z,5.23
2018-08-19T11:58:07.845Z,2.90
2018-08-19T12:03:10.892Z,1.93
2018-08-19T12:08:13.929Z,8.50
2018-08-19T12:13:16.975Z,2.57
2018-08-19T12:18:20.012Z,2.13
2018-08-19T12:23:23.045Z,3.87
2018-08-19T12:28:26.065Z,3.47
2018-08-19T12:33:29.109Z,5.47
2018-08-19T12:38:32.156Z,2.00
2018-08-19T12:43:35.660Z,1.70
2018-08-19T12:48:38.703Z,7.77
2018-08-19T12:53:41.736Z,3.33
2018-08-19T12:58:44.772Z,2.30
2018-08-19T13:03:47.857Z,2.73
2018-08-19T13:08:50.912Z,5.13
2018-08-19T13:13:53.994Z,2.60
2018-08-19T13:18:56.990Z,7.77
2018-08-19T13:24:00.021Z,2.23
2018-08-19T13:29:03.072Z,6.80
2018-08-19T13:34:06.216Z,2.37
2018-08-19T13:39:09.313Z,2.43
2018-08-19T13:44:12.348Z,1.90
2018-08-19T13:49:18.484Z,5.80
2018-08-19T13:54:22.720Z,2.67
2018-08-19T13:59:25.754Z,5.37
2018-08-19T14:04:28.800Z,2.00
2018-08-19T14:09:31.844Z,2.73
2018-08-19T14:14:34.873Z,4.80
2018-08-19T14:19:37.948Z,3.87
2018-08-19T14:24:40.984Z,2.57
2018-08-19T14:29:44.145Z,4.90
2018-08-19T14:34:47.257Z,5.60
2018-08-19T14:39:50.304Z,2.97
2018-08-19T14:44:53.572Z,7.77
2018-08-19T14:49:57.600Z,6.57
2018-08-19T14:55:00.622Z,2.97
2018-08-19T15:00:05.247Z,3.00
2018-08-19T15:05:12.056Z,4.10
2018-08-19T15:10:19.828Z,3.13
2018-08-19T15:15:22.968Z,3.80
2018-08-19T15:20:31.572Z,3.50
2018-08-19T15:25:34.688Z,3.13
2018-08-19T15:30:39.658Z,3.13
2018-08-19T15:35:43.048Z,2.87
2018-08-19T15:40:48.873Z,5.00
2018-08-19T15:45:51.929Z,2.97
2018-08-19T15:50:59.216Z,2.90
2018-08-19T15:56:02.340Z,4.73
2018-08-19T16:01:17.303Z,3.43
2018-08-19T16:06:20.429Z,7.33
2018-08-19T16:11:23.497Z,3.17
2018-08-19T16:16:26.665Z,4.87
2018-08-19T16:21:29.704Z,3.93
2018-08-19T16:26:32.736Z,3.50
2018-08-19T16:31:35.783Z,6.10
2018-08-19T16:36:38.816Z,4.00
2018-08-19T16:41:41.856Z,4.80
2018-08-19T16:46:44.884Z,8.13
2018-08-19T16:51:47.908Z,3.30
2018-08-19T16:56:50.926Z,4.60
2018-08-19T17:01:53.991Z,4.17
2018-08-19T17:06:57.021Z,7.07
2018-08-19T17:12:00.036Z,3.47
2018-08-19T17:17:03.088Z,4.23
2018-08-19T17:22:08.211Z,3.80
2018-08-19T17:27:11.724Z,5.10
2018-08-19T17:32:14.780Z,3.67
2018-08-19T17:37:18.504Z,4.13
2018-08-19T17:42:21.596Z,4.03
2018-08-19T17:47:24.644Z,3.63
2018-08-19T17:52:27.700Z,7.80
2018-08-19T17:57:30.746Z,5.03
2018-08-19T18:02:33.776Z,4.10
2018-08-19T18:07:36.888Z,4.93
2018-08-19T18:12:39.949Z,5.37
2018-08-19T18:17:47.308Z,4.73
2018-08-19T18:22:50.505Z,4.20
2018-08-19T18:27:53.592Z,3.67
2018-08-19T18:32:56.608Z,3.90
2018-08-19T18:38:00.100Z,4.27
2018-08-19T18:43:03.343Z,4.30
2018-08-19T18:48:07.213Z,4.00
2018-08-19T18:53:10.445Z,5.73
2018-08-19T18:58:13.698Z,7.20
2018-08-19T19:03:16.801Z,4.03
2018-08-19T19:08:19.832Z,8.97
2018-08-19T19:13:23.889Z,5.80
2018-08-19T19:18:26.955Z,5.83
2018-08-19T19:23:32.575Z,6.73
2018-08-19T19:28:35.735Z,5.60
2018-08-19T19:33:38.716Z,5.70
2018-08-19T19:38:48.277Z,6.50
2018-08-19T19:43:51.308Z,6.07
2018-08-19T19:48:54.394Z,7.70
2018-08-19T19:53:57.439Z,13.20
2018-08-19T19:59:00.477Z,5.60
2018-08-19T20:04:03.788Z,10.10
2018-08-19T20:09:06.848Z,11.80
2018-08-19T20:14:09.898Z,9.63
2018-08-19T20:19:12.936Z,6.20
2018-08-19T20:24:16.026Z,7.10
2018-08-19T20:29:19.276Z,6.80
2018-08-19T20:34:22.309Z,5.53
2018-08-19T20:39:25.383Z,7.63
2018-08-19T20:44:28.613Z,7.80
2018-08-19T20:49:31.628Z,9.77
2018-08-19T20:54:34.737Z,9.57
2018-08-19T20:59:38.516Z,8.03
2018-08-19T21:04:41.538Z,10.10
2018-08-19T21:09:44.579Z,8.73
2018-08-19T21:14:47.682Z,6.93
2018-08-19T21:19:50.690Z,8.43
2018-08-19T21:24:53.747Z,13.30
2018-08-19T21:29:56.838Z,9.80
2018-08-19T21:34:59.840Z,12.87
2018-08-19T21:40:03.296Z,6.73
2018-08-19T21:45:06.342Z,8.43
2018-08-19T21:50:09.368Z,8.90
2018-08-19T21:55:12.392Z,18.00
2018-08-19T22:00:15.420Z,13.63
2018-08-19T22:05:18.532Z,11.77
2018-08-19T22:10:21.639Z,10.93
2018-08-19T22:15:29.055Z,9.90
2018-08-19T22:20:32.299Z,11.10
2018-08-19T22:25:35.376Z,13.47
2018-08-19T22:30:38.438Z,10.57
2018-08-19T22:35:41.474Z,9.17
2018-08-19T22:40:44.533Z,16.90
2018-08-19T22:45:48.164Z,10.60
2018-08-19T22:50:51.212Z,11.27
2018-08-19T22:55:54.316Z,9.73
2018-08-19T23:00:57.345Z,11.53
2018-08-19T23:06:00.413Z,10.53
2018-08-19T23:11:04.195Z,10.67
2018-08-19T23:16:09.300Z,12.27
2018-08-19T23:21:12.345Z,9.03
2018-08-19T23:26:15.395Z,15.33
2018-08-19T23:31:18.412Z,14.00
2018-08-19T23:36:21.423Z,12.03
2018-08-19T23:41:24.479Z,12.27
2018-08-19T23:46:27.518Z,10.40
2018-08-19T23:51:31.596Z,10.73
2018-08-19T23:56:34.653Z,10.50
